createdAt,value
2023-05-05T00:02:26.625Z,2.33
2023-05-05T00:04:54.736Z,2.20
2023-05-05T00:07:22.965Z,2.23
2023-05-05T00:09:50.944Z,2.40
2023-05-05T00:12:18.954Z,1.93
2023-05-05T00:14:47.049Z,2.17
2023-05-05T00:17:14.762Z,2.10
2023-05-05T00:19:44.285Z,2.10
2023-05-05T00:22:11.984Z,2.13
2023-05-05T00:24:39.776Z,2.13
2023-05-05T00:27:07.676Z,2.10
2023-05-05T00:29:35.312Z,2.00
2023-05-05T00:32:03.207Z,2.03
2023-05-05T00:34:31.306Z,2.00
2023-05-05T00:37:01.059Z,2.10
2023-05-05T00:39:28.711Z,2.27
2023-05-05T00:41:56.313Z,2.20
2023-05-05T00:44:38.274Z,2.00
2023-05-05T00:47:07.087Z,1.90
2023-05-05T00:49:36.188Z,1.70
2023-05-05T00:52:06.700Z,2.10
2023-05-05T00:54:35.525Z,2.10
2023-05-05T00:57:03.875Z,2.10
2023-05-05T00:59:32.522Z,2.80
2023-05-05T01:02:00.971Z,2.30
2023-05-05T01:04:28.693Z,2.27
2023-05-05T01:07:09.994Z,2.10
2023-05-05T01:09:43.524Z,2.10
2023-05-05T01:12:19.493Z,1.90
2023-05-05T01:14:54.548Z,2.00
2023-05-05T01:17:27.583Z,2.30
2023-05-05T01:20:04.147Z,2.13
2023-05-05T01:22:39.030Z,2.20
2023-05-05T01:25:26.463Z,2.80
2023-05-05T01:28:18.469Z,2.00
2023-05-05T01:31:05.903Z,1.90
2023-05-05T01:33:37.817Z,2.10
2023-05-05T01:36:11.736Z,2.00
2023-05-05T01:38:42.387Z,2.13
2023-05-05T01:41:14.981Z,2.20
2023-05-05T01:43:47.163Z,3.53
2023-05-05T01:46:16.215Z,2.10
2023-05-05T01:48:47.819Z,2.53
2023-05-05T01:51:18.918Z,1.97
2023-05-05T01:53:47.242Z,2.10
2023-05-05T01:56:16.856Z,2.20
2023-05-05T01:58:46.711Z,2.43
2023-05-05T02:01:15.664Z,2.10
2023-05-05T02:03:47.129Z,2.33
2023-05-05T02:06:17.622Z,2.50
2023-05-05T02:08:46.638Z,2.40
2023-05-05T02:11:16.319Z,1.97
2023-05-05T02:13:45.828Z,2.30
2023-05-05T02:16:15.290Z,2.40
2023-05-05T02:18:47.333Z,1.90
2023-05-05T02:21:17.918Z,2.20
2023-05-05T02:23:46.908Z,2.20
2023-05-05T02:26:17.815Z,2.20
2023-05-05T02:28:50.200Z,2.00
2023-05-05T02:31:21.554Z,2.10
2023-05-05T02:33:52.434Z,2.00
2023-05-05T02:36:23.044Z,1.90
2023-05-05T02:38:55.588Z,2.20
2023-05-05T02:41:25.872Z,2.33
2023-05-05T02:43:56.668Z,2.10
2023-05-05T02:46:24.476Z,2.00
2023-05-05T02:48:53.745Z,2.20
2023-05-05T02:51:22.419Z,2.30
2023-05-05T02:53:50.076Z,2.30
2023-05-05T02:56:27.929Z,2.20
2023-05-05T02:59:01.513Z,2.30
2023-05-05T03:01:35.509Z,2.20
2023-05-05T03:04:08.752Z,2.07
2023-05-05T03:06:42.224Z,2.20
2023-05-05T03:09:11.995Z,2.13
2023-05-05T03:11:44.421Z,2.10
2023-05-05T03:14:14.346Z,2.10
2023-05-05T03:16:43.703Z,2.10
2023-05-05T03:19:14.993Z,2.17
2023-05-05T03:21:44.501Z,2.13
2023-05-05T03:24:15.827Z,2.20
2023-05-05T03:26:44.546Z,2.20
2023-05-05T03:29:12.471Z,2.07
2023-05-05T03:31:40.390Z,2.33
2023-05-05T03:34:08.554Z,2.27
2023-05-05T03:36:37.910Z,2.50
2023-05-05T03:39:05.923Z,2.33
2023-05-05T03:41:34.162Z,2.17
2023-05-05T03:44:01.904Z,2.40
2023-05-05T03:46:30.724Z,2.13
2023-05-05T03:48:58.733Z,2.30
2023-05-05T03:51:27.141Z,2.23
2023-05-05T03:53:56.664Z,1.83
2023-05-05T03:56:24.384Z,2.33
2023-05-05T03:58:52.554Z,2.77
2023-05-05T04:01:20.260Z,2.50
2023-05-05T04:03:48.175Z,2.50
2023-05-05T04:06:16.137Z,2.40
2023-05-05T04:08:43.822Z,2.70
2023-05-05T04:11:14.561Z,2.30
2023-05-05T04:13:42.633Z,2.53
2023-05-05T04:16:11.711Z,2.53
2023-05-05T04:18:39.596Z,3.20
2023-05-05T04:21:07.388Z,2.67
2023-05-05T04:23:35.403Z,2.93
2023-05-05T04:26:03.158Z,2.43
2023-05-05T04:28:33.162Z,2.47
2023-05-05T04:31:01.429Z,2.53
2023-05-05T04:33:29.271Z,2.67
2023-05-05T04:35:58.628Z,2.70
2023-05-05T04:38:26.487Z,2.77
2023-05-05T04:40:54.483Z,2.60
2023-05-05T04:43:22.384Z,2.50
2023-05-05T04:45:55.249Z,2.77
2023-05-05T04:48:22.928Z,3.00
2023-05-05T04:50:51.512Z,2.70
2023-05-05T04:53:19.483Z,2.80
2023-05-05T04:55:47.347Z,3.43
2023-05-05T04:58:14.984Z,2.90
2023-05-05T05:00:43.615Z,2.80
2023-05-05T05:03:13.044Z,2.90
2023-05-05T05:05:41.234Z,3.20
2023-05-05T05:08:09.013Z,3.00
2023-05-05T05:10:37.515Z,2.70
2023-05-05T05:13:05.307Z,2.63
2023-05-05T05:15:33.051Z,2.77
2023-05-05T05:18:00.830Z,2.83
2023-05-05T05:20:31.012Z,3.30
2023-05-05T05:23:01.402Z,3.53
2023-05-05T05:25:29.480Z,2.63
2023-05-05T05:28:08.865Z,3.10
2023-05-05T05:30:38.522Z,2.90
2023-05-05T05:33:06.703Z,3.10
2023-05-05T05:35:36.475Z,3.13
2023-05-05T05:38:04.944Z,3.23
2023-05-05T05:40:33.491Z,3.13
2023-05-05T05:43:02.970Z,3.40
2023-05-05T05:45:32.308Z,4.00
2023-05-05T05:48:00.403Z,3.40
2023-05-05T05:50:31.289Z,3.20
2023-05-05T05:53:01.179Z,3.50
2023-05-05T05:55:29.013Z,3.30
2023-05-05T05:57:57.664Z,3.83
2023-05-05T06:00:27.075Z,3.70
2023-05-05T06:02:56.868Z,3.90
2023-05-05T06:05:24.677Z,3.73
2023-05-05T06:07:53.211Z,3.80
2023-05-05T06:10:27.179Z,3.57
2023-05-05T06:12:57.134Z,3.70
2023-05-05T06:15:25.797Z,3.70
2023-05-05T06:17:53.893Z,4.00
2023-05-05T06:20:22.919Z,3.70
2023-05-05T06:22:51.158Z,4.17
2023-05-05T06:25:19.892Z,3.87
2023-05-05T06:27:49.235Z,4.10
2023-05-05T06:30:17.850Z,3.60
2023-05-05T06:32:46.079Z,4.07
2023-05-05T06:35:14.786Z,4.20
2023-05-05T06:37:45.689Z,3.90
2023-05-05T06:40:15.955Z,4.47
2023-05-05T06:42:43.998Z,4.60
2023-05-05T06:45:13.824Z,3.97
2023-05-05T06:47:45.282Z,4.13
2023-05-05T06:50:13.275Z,4.60
2023-05-05T06:52:42.065Z,4.43
2023-05-05T06:55:12.000Z,5.30
2023-05-05T06:57:39.764Z,4.73
2023-05-05T07:00:11.993Z,5.80
2023-05-05T07:02:42.009Z,6.43
2023-05-05T07:05:10.455Z,6.10
2023-05-05T07:07:39.021Z,7.17
2023-05-05T07:10:10.024Z,7.20
2023-05-05T07:12:38.476Z,7.47
2023-05-05T07:15:23.390Z,8.40
2023-05-05T07:17:56.491Z,9.10
2023-05-05T07:20:24.681Z,8.60
2023-05-05T07:22:54.012Z,8.57
2023-05-05T07:25:22.365Z,11.67
2023-05-05T07:27:50.151Z,9.83
2023-05-05T07:30:19.718Z,12.93
2023-05-05T07:32:48.099Z,13.70
2023-05-05T07:35:17.718Z,12.43
2023-05-05T07:37:47.956Z,10.40
2023-05-05T07:40:19.279Z,11.83
2023-05-05T07:42:47.619Z,9.23
2023-05-05T07:45:17.716Z,9.03
2023-05-05T07:47:46.199Z,9.37
2023-05-05T07:50:14.170Z,10.73
2023-05-05T07:52:49.981Z,10.77
2023-05-05T07:55:24.066Z,11.70
2023-05-05T07:57:52.323Z,8.87
2023-05-05T08:00:20.404Z,9.30
2023-05-05T08:02:50.835Z,9.03
2023-05-05T08:05:18.911Z,8.83
2023-05-05T08:07:48.304Z,8.97
2023-05-05T08:10:16.150Z,9.23
2023-05-05T08:12:44.275Z,8.77
2023-05-05T08:15:12.891Z,9.10
2023-05-05T08:17:51.578Z,10.00
2023-05-05T08:20:20.655Z,9.10
2023-05-05T08:22:52.597Z,9.77
2023-05-05T08:25:21.542Z,9.63
2023-05-05T08:27:50.599Z,9.10
2023-05-05T08:30:20.996Z,9.30
2023-05-05T08:32:50.512Z,8.60
2023-05-05T08:35:18.245Z,9.17
2023-05-05T08:37:46.694Z,8.00
2023-05-05T08:40:17.399Z,9.13
2023-05-05T08:42:46.376Z,9.00
2023-05-05T08:45:15.369Z,9.10
2023-05-05T08:47:44.372Z,8.90
2023-05-05T08:50:13.597Z,8.80
2023-05-05T08:52:44.530Z,8.97
2023-05-05T08:55:25.727Z,9.20
2023-05-05T08:57:56.212Z,10.07
2023-05-05T09:00:28.165Z,8.70
2023-05-05T09:03:00.409Z,8.37
2023-05-05T09:05:28.234Z,7.43
2023-05-05T09:07:56.709Z,7.40
2023-05-05T09:10:29.977Z,7.70
2023-05-05T09:12:58.376Z,7.20
2023-05-05T09:15:28.283Z,7.17
2023-05-05T09:17:58.175Z,7.57
2023-05-05T09:20:26.360Z,7.40
2023-05-05T09:22:54.101Z,7.30
2023-05-05T09:25:22.117Z,7.67
2023-05-05T09:27:52.530Z,7.57
2023-05-05T09:30:27.255Z,7.43
2023-05-05T09:32:58.187Z,7.80
2023-05-05T09:35:26.990Z,6.87
2023-05-05T09:37:54.994Z,5.97
2023-05-05T09:40:23.449Z,6.43
2023-05-05T09:43:05.381Z,6.43
2023-05-05T09:45:33.255Z,6.13
2023-05-05T09:48:01.527Z,6.70
2023-05-05T09:50:31.204Z,7.60
2023-05-05T09:53:02.762Z,5.73
2023-05-05T09:55:32.262Z,6.60
2023-05-05T09:58:18.788Z,6.33
2023-05-05T10:00:47.768Z,6.63
2023-05-05T10:03:15.483Z,5.50
2023-05-05T10:05:50.469Z,4.63
2023-05-05T10:08:23.027Z,4.13
2023-05-05T10:10:53.214Z,5.13
2023-05-05T10:13:24.734Z,4.33
2023-05-05T10:15:54.350Z,4.70
2023-05-05T10:18:24.506Z,4.50
2023-05-05T10:20:58.454Z,4.07
2023-05-05T10:23:33.899Z,4.37
2023-05-05T10:26:03.727Z,3.67
2023-05-05T10:28:35.786Z,4.83
2023-05-05T10:31:13.104Z,3.60
2023-05-05T10:33:55.400Z,4.20
2023-05-05T10:36:24.594Z,3.83
2023-05-05T10:38:56.275Z,4.27
2023-05-05T10:44:18.807Z,5.37
2023-05-05T10:46:48.739Z,4.80
2023-05-05T10:49:28.128Z,5.03
2023-05-05T10:52:02.554Z,4.40
2023-05-05T10:54:40.550Z,4.07
2023-05-05T10:57:12.033Z,3.60
2023-05-05T10:59:44.899Z,4.20
2023-05-05T11:02:23.763Z,3.67
2023-05-05T11:05:18.251Z,4.60
2023-05-05T11:07:48.141Z,4.60
2023-05-05T11:10:17.718Z,4.53
2023-05-05T11:13:19.894Z,4.23
2023-05-05T11:15:50.471Z,4.83
2023-05-05T11:18:34.035Z,4.87
2023-05-05T11:21:20.688Z,4.67
2023-05-05T11:23:50.500Z,5.77
2023-05-05T11:26:20.068Z,5.93
2023-05-05T11:29:02.696Z,5.30
2023-05-05T11:31:32.853Z,5.23
2023-05-05T11:34:25.865Z,4.93
2023-05-05T11:36:54.892Z,4.35
2023-05-05T11:39:26.495Z,5.13
2023-05-05T11:42:21.922Z,5.20
2023-05-05T11:44:51.138Z,5.03
2023-05-05T11:47:34.254Z,4.93
2023-05-05T11:50:19.822Z,5.47
2023-05-05T11:52:50.968Z,4.40
2023-05-05T11:55:25.678Z,5.10
2023-05-05T11:57:53.436Z,4.43
2023-05-05T12:00:21.522Z,4.53
2023-05-05T12:02:58.938Z,4.67
2023-05-05T12:05:26.965Z,4.23
2023-05-05T12:08:00.573Z,5.40
2023-05-05T12:10:28.768Z,4.55
2023-05-05T12:12:56.641Z,4.20
2023-05-05T12:15:33.348Z,4.13
2023-05-05T12:18:03.395Z,4.30
2023-05-05T12:20:33.272Z,4.23
2023-05-05T12:23:02.697Z,3.33
2023-05-05T12:25:37.249Z,3.23
2023-05-05T12:28:06.221Z,2.90
2023-05-05T12:30:36.852Z,3.25
2023-05-05T12:33:09.026Z,3.33
2023-05-05T12:35:37.877Z,3.20
2023-05-05T12:38:07.285Z,3.50
2023-05-05T12:40:46.050Z,2.78
2023-05-05T12:43:33.148Z,2.55
2023-05-05T12:46:02.630Z,2.65
2023-05-05T12:48:31.899Z,2.47
2023-05-05T12:51:17.394Z,3.05
2023-05-05T12:53:45.916Z,2.42
2023-05-05T12:56:35.853Z,2.70
2023-05-05T12:59:05.792Z,2.72
2023-05-05T13:01:36.359Z,3.40
2023-05-05T13:04:12.408Z,2.90
2023-05-05T13:06:41.034Z,3.38
2023-05-05T13:09:10.038Z,3.30
2023-05-05T13:11:38.922Z,3.80
2023-05-05T13:14:09.791Z,3.10
2023-05-05T13:16:37.737Z,3.47
2023-05-05T13:19:05.600Z,3.10
2023-05-05T13:21:35.090Z,2.63
2023-05-05T13:24:20.779Z,3.00
2023-05-05T13:26:52.224Z,2.77
2023-05-05T13:29:20.928Z,2.70
2023-05-05T13:31:50.020Z,2.40
2023-05-05T13:34:18.838Z,2.10
2023-05-05T13:36:48.443Z,2.53
2023-05-05T13:39:16.291Z,2.00
2023-05-05T13:41:44.959Z,2.30
2023-05-05T13:44:13.640Z,2.30
2023-05-05T13:46:41.873Z,2.60
2023-05-05T13:49:10.046Z,2.20
2023-05-05T13:51:39.193Z,2.00
2023-05-05T13:54:10.127Z,2.20
2023-05-05T13:56:37.916Z,2.43
2023-05-05T13:59:06.006Z,2.27
2023-05-05T14:01:33.933Z,2.30
2023-05-05T14:04:04.481Z,2.30
2023-05-05T14:06:33.885Z,2.30
2023-05-05T14:09:02.045Z,2.20
2023-05-05T14:11:31.618Z,2.33
2023-05-05T14:13:59.286Z,2.43
2023-05-05T14:16:27.069Z,2.90
2023-05-05T14:18:55.617Z,3.30
2023-05-05T14:21:23.621Z,3.97
2023-05-05T14:23:51.645Z,4.47
2023-05-05T14:26:19.469Z,4.63
2023-05-05T14:28:49.862Z,3.20
2023-05-05T14:31:18.260Z,3.30
2023-05-05T14:33:46.362Z,2.67
2023-05-05T14:36:14.350Z,2.53
2023-05-05T14:38:42.817Z,1.87
2023-05-05T14:41:10.713Z,1.93
2023-05-05T14:43:39.713Z,1.50
2023-05-05T14:46:09.736Z,1.60
2023-05-05T14:48:37.900Z,1.53
2023-05-05T14:51:06.408Z,1.50
2023-05-05T14:53:36.080Z,1.40
2023-05-05T14:56:04.396Z,1.40
2023-05-05T14:58:32.372Z,1.10
2023-05-05T15:01:01.161Z,1.10
2023-05-05T15:03:32.389Z,1.30
2023-05-05T15:06:05.221Z,1.30
2023-05-05T15:08:33.335Z,1.30
2023-05-05T15:11:01.336Z,1.30
2023-05-05T15:13:29.956Z,1.17
2023-05-05T15:15:57.979Z,1.40
2023-05-05T15:18:26.172Z,1.20
2023-05-05T15:20:55.502Z,1.40
2023-05-05T15:23:24.873Z,1.30
2023-05-05T15:25:52.864Z,1.30
2023-05-05T15:28:20.849Z,1.20
2023-05-05T15:30:50.460Z,1.33
2023-05-05T15:33:18.659Z,1.30
2023-05-05T15:35:46.838Z,1.50
2023-05-05T15:38:16.320Z,1.60
2023-05-05T15:40:47.742Z,2.00
2023-05-05T15:43:17.402Z,2.40
2023-05-05T15:45:46.026Z,2.17
2023-05-05T15:48:14.135Z,1.90
2023-05-05T15:50:43.364Z,1.90
2023-05-05T15:53:11.134Z,1.70
2023-05-05T15:55:40.357Z,1.70
2023-05-05T15:58:08.090Z,1.60
2023-05-05T16:00:36.464Z,2.07
2023-05-05T16:03:04.590Z,2.17
2023-05-05T16:05:32.587Z,2.40
2023-05-05T16:08:00.320Z,2.60
2023-05-05T16:10:28.131Z,2.23
2023-05-05T16:12:58.261Z,2.47
2023-05-05T16:15:27.020Z,2.37
2023-05-05T16:17:54.714Z,2.00
2023-05-05T16:20:22.788Z,2.30
2023-05-05T16:22:52.471Z,2.27
2023-05-05T16:25:20.903Z,1.90
2023-05-05T16:27:48.861Z,2.10
2023-05-05T16:30:18.668Z,1.87
2023-05-05T16:32:48.120Z,2.27
2023-05-05T16:35:16.072Z,2.00
2023-05-05T16:37:44.200Z,2.10
2023-05-05T16:40:13.493Z,1.90
2023-05-05T16:42:44.336Z,1.87
2023-05-05T16:45:12.661Z,1.70
2023-05-05T16:47:42.183Z,1.80
2023-05-05T16:50:10.577Z,1.60
2023-05-05T16:52:39.223Z,1.60
2023-05-05T16:55:08.315Z,1.60
2023-05-05T16:57:36.455Z,1.63
2023-05-05T17:00:04.853Z,1.30
2023-05-05T17:02:32.656Z,1.30
2023-05-05T17:05:02.137Z,1.37
2023-05-05T17:07:30.134Z,1.40
2023-05-05T17:09:57.858Z,1.70
2023-05-05T17:12:25.713Z,1.57
2023-05-05T17:14:54.101Z,1.83
2023-05-05T17:17:22.253Z,1.90
2023-05-05T17:19:50.751Z,1.60
2023-05-05T17:22:20.247Z,1.60
2023-05-05T17:24:48.033Z,1.40
2023-05-05T17:27:17.193Z,1.77
2023-05-05T17:29:45.161Z,1.50
2023-05-05T17:32:14.394Z,1.83
2023-05-05T17:34:42.220Z,1.70
2023-05-05T17:37:10.552Z,1.50
2023-05-05T17:39:39.914Z,1.70
2023-05-05T17:42:07.772Z,1.87
2023-05-05T17:44:35.495Z,1.97
2023-05-05T17:47:04.003Z,2.13
2023-05-05T17:49:32.555Z,2.27
2023-05-05T17:52:00.587Z,2.07
2023-05-05T17:54:28.912Z,1.83
2023-05-05T17:57:02.869Z,1.70
2023-05-05T17:59:33.485Z,1.60
2023-05-05T18:02:02.147Z,1.60
2023-05-05T18:04:30.230Z,1.57
2023-05-05T18:06:58.440Z,1.60
2023-05-05T18:09:26.096Z,1.80
2023-05-05T18:11:54.555Z,1.80
2023-05-05T18:14:25.937Z,1.97
2023-05-05T18:16:57.259Z,2.27
2023-05-05T18:19:25.099Z,2.20
2023-05-05T18:21:54.646Z,1.90
2023-05-05T18:24:23.361Z,1.97
2023-05-05T18:26:52.915Z,1.80
2023-05-05T18:29:21.923Z,2.03
2023-05-05T18:31:57.355Z,2.27
2023-05-05T18:34:25.526Z,2.40
2023-05-05T18:36:54.538Z,2.20
2023-05-05T18:39:23.828Z,2.40
2023-05-05T18:41:51.664Z,2.53
2023-05-05T18:44:19.884Z,2.50
2023-05-05T18:46:48.072Z,2.80
2023-05-05T18:49:17.499Z,3.00
2023-05-05T18:51:46.827Z,2.87
2023-05-05T18:54:14.866Z,3.03
2023-05-05T18:56:42.926Z,3.50
2023-05-05T18:59:10.974Z,3.20
2023-05-05T19:01:39.199Z,3.60
2023-05-05T19:04:18.693Z,3.53
2023-05-05T19:06:52.780Z,3.50
2023-05-05T19:09:21.795Z,3.60
2023-05-05T19:11:49.584Z,3.47
2023-05-05T19:14:18.414Z,3.63
2023-05-05T19:16:46.298Z,3.83
2023-05-05T19:19:15.936Z,3.87
2023-05-05T19:21:44.146Z,3.93
2023-05-05T19:24:13.241Z,3.70
2023-05-05T19:26:41.434Z,4.00
2023-05-05T19:29:09.690Z,4.10
2023-05-05T19:31:37.738Z,4.27
2023-05-05T19:34:06.356Z,3.90
2023-05-05T19:36:35.711Z,3.70
2023-05-05T19:39:06.502Z,3.83
2023-05-05T19:41:36.362Z,3.90
2023-05-05T19:44:04.722Z,3.97
2023-05-05T19:46:32.887Z,4.87
2023-05-05T19:49:01.289Z,4.47
2023-05-05T19:51:29.342Z,5.10
2023-05-05T19:53:57.107Z,4.43
2023-05-05T19:56:25.217Z,4.97
2023-05-05T19:59:00.825Z,6.23
2023-05-05T20:01:30.695Z,4.60
2023-05-05T20:03:59.952Z,4.30
2023-05-05T20:06:28.902Z,4.87
2023-05-05T20:08:56.575Z,5.30
2023-05-05T20:11:24.909Z,5.33
2023-05-05T20:13:53.222Z,5.47
2023-05-05T20:16:22.636Z,5.53
2023-05-05T20:18:51.075Z,5.63
2023-05-05T20:21:19.991Z,7.83
2023-05-05T20:23:48.956Z,8.03
2023-05-05T20:26:17.020Z,8.10
2023-05-05T20:28:45.818Z,8.40
2023-05-05T20:31:15.689Z,6.97
2023-05-05T20:33:45.653Z,8.27
2023-05-05T20:36:14.800Z,8.50
2023-05-05T20:38:44.288Z,8.77
2023-05-05T20:41:12.149Z,7.67
2023-05-05T20:43:40.353Z,9.90
2023-05-05T20:46:13.223Z,8.97
2023-05-05T20:48:43.085Z,9.40
2023-05-05T20:51:13.376Z,8.30
2023-05-05T20:53:41.330Z,8.03
2023-05-05T20:56:09.591Z,8.43
2023-05-05T20:58:37.531Z,8.77
2023-05-05T21:01:05.914Z,9.63
2023-05-05T21:03:33.816Z,7.60
2023-05-05T21:06:03.147Z,7.60
2023-05-05T21:08:34.059Z,6.67
2023-05-05T21:11:01.767Z,6.87
2023-05-05T21:13:29.732Z,6.40
2023-05-05T21:15:57.692Z,5.97
2023-05-05T21:18:27.733Z,6.20
2023-05-05T21:20:55.876Z,6.30
2023-05-05T21:23:23.628Z,5.97
2023-05-05T21:25:53.271Z,7.37
2023-05-05T21:28:21.170Z,7.37
2023-05-05T21:31:10.161Z,6.63
2023-05-05T21:33:38.806Z,6.63
2023-05-05T21:36:07.504Z,7.00
2023-05-05T21:38:35.359Z,6.43
2023-05-05T21:41:05.983Z,5.80
2023-05-05T21:43:33.634Z,5.30
2023-05-05T21:46:02.200Z,5.73
2023-05-05T21:48:31.459Z,5.60
2023-05-05T21:50:59.596Z,6.00
2023-05-05T21:53:28.233Z,7.23
2023-05-05T21:55:57.239Z,6.87
2023-05-05T21:58:26.657Z,7.10
2023-05-05T22:00:54.458Z,6.67
2023-05-05T22:03:22.354Z,7.50
2023-05-05T22:05:50.066Z,7.70
2023-05-05T22:08:18.802Z,6.03
2023-05-05T22:10:47.654Z,7.07
2023-05-05T22:13:16.010Z,6.47
2023-05-05T22:15:47.392Z,7.90
2023-05-05T22:18:18.530Z,7.77
2023-05-05T22:20:46.864Z,7.40
2023-05-05T22:23:16.324Z,10.27
2023-05-05T22:25:44.611Z,7.67
2023-05-05T22:28:12.550Z,8.77
2023-05-05T22:30:42.109Z,9.17
2023-05-05T22:33:11.341Z,9.23
2023-05-05T22:35:39.042Z,8.40
2023-05-05T22:38:07.009Z,8.00
2023-05-05T22:40:35.043Z,8.30
2023-05-05T22:43:03.902Z,8.00
2023-05-05T22:45:31.663Z,8.27
2023-05-05T22:47:59.352Z,8.77
2023-05-05T22:50:29.033Z,9.50
2023-05-05T22:52:58.709Z,9.17
2023-05-05T22:55:26.835Z,9.67
2023-05-05T22:57:54.932Z,9.97
2023-05-05T23:00:22.897Z,9.50
2023-05-05T23:02:50.574Z,9.80
2023-05-05T23:05:19.219Z,12.20
2023-05-05T23:07:48.743Z,11.23
2023-05-05T23:10:16.686Z,13.43
2023-05-05T23:12:44.504Z,13.17
2023-05-05T23:15:13.473Z,14.60
2023-05-05T23:17:41.358Z,12.30
2023-05-05T23:20:12.300Z,15.13
2023-05-05T23:22:40.319Z,15.00
2023-05-05T23:25:13.009Z,16.70
2023-05-05T23:27:41.114Z,15.53
2023-05-05T23:30:10.701Z,15.03
2023-05-05T23:32:38.622Z,16.10
2023-05-05T23:35:07.376Z,17.70
2023-05-05T23:37:36.651Z,16.03
2023-05-05T23:40:07.009Z,15.07
2023-05-05T23:42:36.453Z,15.50
2023-05-05T23:45:06.314Z,15.77
2023-05-05T23:47:35.393Z,15.03
2023-05-05T23:50:03.589Z,14.00
2023-05-05T23:52:32.112Z,15.70
2023-05-05T23:55:01.667Z,16.03
2023-05-05T23:57:29.865Z,14.80
